createdAt,value
2022-07-29T00:02:25.579Z,4.88
2022-07-29T00:04:52.381Z,5.03
2022-07-29T00:07:19.335Z,4.75
2022-07-29T00:09:51.167Z,4.57
2022-07-29T00:12:25.464Z,4.47
2022-07-29T00:14:55.790Z,5.10
2022-07-29T00:17:23.398Z,5.25
2022-07-29T00:19:50.077Z,4.70
2022-07-29T00:22:21.052Z,4.68
2022-07-29T00:24:50.232Z,4.47
2022-07-29T00:27:17.700Z,4.93
2022-07-29T00:29:45.701Z,4.78
2022-07-29T00:32:12.472Z,5.05
2022-07-29T00:34:54.582Z,4.65
2022-07-29T00:37:21.255Z,4.60
2022-07-29T00:39:48.480Z,4.43
2022-07-29T00:42:15.157Z,4.93
2022-07-29T00:44:42.671Z,5.05
2022-07-29T00:47:11.438Z,4.68
2022-07-29T00:49:40.117Z,5.13
2022-07-29T00:52:08.261Z,4.90
2022-07-29T00:54:39.129Z,4.55
2022-07-29T00:57:12.437Z,5.05
2022-07-29T00:59:39.246Z,4.95
2022-07-29T01:02:06.157Z,5.43
2022-07-29T01:04:33.286Z,5.43
2022-07-29T01:07:02.895Z,5.13
2022-07-29T01:09:42.928Z,5.07
2022-07-29T01:12:22.420Z,4.93
2022-07-29T01:14:51.044Z,5.18
2022-07-29T01:17:25.199Z,4.97
2022-07-29T01:20:07.343Z,5.10
2022-07-29T01:22:35.021Z,5.10
2022-07-29T01:25:32.089Z,5.32
2022-07-29T01:30:43.045Z,5.05
2022-07-29T01:33:34.997Z,5.00
2022-07-29T01:36:06.803Z,5.70
2022-07-29T01:38:36.121Z,5.43
2022-07-29T01:41:16.072Z,5.90
2022-07-29T01:43:50.629Z,5.55
2022-07-29T01:46:25.423Z,5.03
2022-07-29T01:48:59.631Z,5.75
2022-07-29T01:51:34.976Z,5.80
2022-07-29T01:54:17.809Z,5.40
2022-07-29T01:56:48.351Z,5.93
2022-07-29T01:59:17.137Z,6.60
2022-07-29T02:01:46.715Z,6.20
2022-07-29T02:04:29.537Z,6.68
2022-07-29T02:07:01.991Z,6.10
2022-07-29T02:09:31.586Z,6.57
2022-07-29T02:12:00.559Z,6.05
2022-07-29T02:14:32.290Z,5.82
2022-07-29T02:17:01.860Z,6.22
2022-07-29T02:19:30.493Z,6.30
2022-07-29T02:21:58.674Z,6.47
2022-07-29T02:24:26.953Z,6.07
2022-07-29T02:26:56.966Z,5.45
2022-07-29T02:29:26.045Z,6.78
2022-07-29T02:31:55.455Z,6.55
2022-07-29T02:34:23.364Z,6.68
2022-07-29T02:36:51.585Z,6.43
2022-07-29T02:39:19.167Z,5.93
2022-07-29T02:41:51.028Z,6.72
2022-07-29T02:44:20.894Z,7.00
2022-07-29T02:46:53.182Z,6.65
2022-07-29T02:49:36.088Z,7.20
2022-07-29T02:52:08.768Z,6.80
2022-07-29T02:54:52.708Z,6.22
2022-07-29T02:57:28.518Z,6.95
2022-07-29T03:00:00.311Z,6.53
2022-07-29T03:02:28.931Z,6.82
2022-07-29T03:05:00.413Z,6.35
2022-07-29T03:07:28.349Z,6.38
2022-07-29T03:09:55.763Z,6.43
2022-07-29T03:12:23.836Z,6.88
2022-07-29T03:14:50.797Z,6.18
2022-07-29T03:17:17.751Z,6.78
2022-07-29T03:19:44.962Z,6.85
2022-07-29T03:22:12.087Z,6.25
2022-07-29T03:24:39.232Z,6.93
2022-07-29T03:27:06.757Z,6.30
2022-07-29T03:29:34.689Z,6.38
2022-07-29T03:32:07.855Z,6.55
2022-07-29T03:34:34.902Z,7.10
2022-07-29T03:37:01.551Z,6.78
2022-07-29T03:39:32.437Z,6.60
2022-07-29T03:42:02.209Z,6.68
2022-07-29T03:44:30.231Z,6.57
2022-07-29T03:47:01.019Z,6.57
2022-07-29T03:49:28.954Z,6.32
2022-07-29T03:51:55.940Z,7.07
2022-07-29T03:54:23.632Z,5.97
2022-07-29T03:56:53.272Z,7.20
2022-07-29T03:59:22.385Z,6.97
2022-07-29T04:01:50.076Z,6.70
2022-07-29T04:04:17.724Z,6.82
2022-07-29T04:06:48.226Z,7.05
2022-07-29T04:09:15.223Z,6.25
2022-07-29T04:12:02.408Z,7.00
2022-07-29T04:14:29.952Z,6.78
2022-07-29T04:16:56.600Z,7.07
2022-07-29T04:19:23.613Z,6.85
2022-07-29T04:21:50.479Z,7.15
2022-07-29T04:24:20.860Z,7.07
2022-07-29T04:26:48.038Z,7.20
2022-07-29T04:29:15.521Z,6.47
2022-07-29T04:31:43.080Z,6.15
2022-07-29T04:34:10.302Z,6.93
2022-07-29T04:36:37.225Z,6.22
2022-07-29T04:39:04.691Z,6.72
2022-07-29T04:41:33.329Z,7.30
2022-07-29T04:44:06.843Z,5.93
2022-07-29T04:46:34.545Z,6.35
2022-07-29T04:49:01.555Z,7.07
2022-07-29T04:51:28.652Z,6.72
2022-07-29T04:53:55.372Z,7.50
2022-07-29T04:56:22.031Z,6.78
2022-07-29T04:58:48.759Z,7.05
2022-07-29T05:01:15.749Z,5.95
2022-07-29T05:03:42.594Z,6.38
2022-07-29T05:06:09.298Z,6.15
2022-07-29T05:08:35.975Z,6.82
2022-07-29T05:11:12.033Z,6.93
2022-07-29T05:13:46.006Z,6.88
2022-07-29T05:16:14.363Z,7.13
2022-07-29T05:18:41.494Z,6.80
2022-07-29T05:21:08.190Z,6.82
2022-07-29T05:23:35.133Z,7.63
2022-07-29T05:26:02.062Z,6.90
2022-07-29T05:28:28.879Z,6.80
2022-07-29T05:30:55.693Z,5.72
2022-07-29T05:33:35.606Z,6.72
2022-07-29T05:36:07.890Z,6.80
2022-07-29T05:38:36.532Z,6.40
2022-07-29T05:41:03.996Z,5.93
2022-07-29T05:43:30.973Z,6.47
2022-07-29T05:45:58.129Z,7.38
2022-07-29T05:48:25.383Z,8.10
2022-07-29T05:50:52.113Z,6.85
2022-07-29T05:53:20.362Z,7.55
2022-07-29T05:55:48.444Z,7.20
2022-07-29T05:58:15.389Z,7.80
2022-07-29T06:00:42.232Z,7.50
2022-07-29T06:03:09.297Z,7.00
2022-07-29T06:05:35.979Z,7.47
2022-07-29T06:08:02.723Z,7.35
2022-07-29T06:10:29.636Z,7.32
2022-07-29T06:12:56.432Z,7.28
2022-07-29T06:15:23.239Z,7.20
2022-07-29T06:18:00.721Z,7.80
2022-07-29T06:20:31.450Z,7.05
2022-07-29T06:22:59.263Z,7.60
2022-07-29T06:25:26.203Z,7.22
2022-07-29T06:27:53.300Z,7.55
2022-07-29T06:30:20.092Z,7.20
2022-07-29T06:32:47.207Z,7.18
2022-07-29T06:38:00.692Z,7.22
2022-07-29T06:40:42.730Z,6.50
2022-07-29T06:43:09.771Z,6.63
2022-07-29T06:45:36.602Z,5.90
2022-07-29T06:48:03.635Z,6.25
2022-07-29T06:50:30.306Z,6.72
2022-07-29T06:52:57.116Z,6.00
2022-07-29T06:55:25.142Z,5.28
2022-07-29T06:57:52.425Z,6.07
2022-07-29T07:00:19.312Z,5.60
2022-07-29T07:02:46.203Z,5.45
2022-07-29T07:05:14.142Z,5.50
2022-07-29T07:07:40.858Z,5.22
2022-07-29T07:10:08.019Z,5.40
2022-07-29T07:12:34.699Z,5.43
2022-07-29T07:15:01.800Z,5.40
2022-07-29T07:17:28.512Z,5.53
2022-07-29T07:19:55.143Z,5.55
2022-07-29T07:22:21.953Z,4.88
2022-07-29T07:24:48.616Z,5.43
2022-07-29T07:27:15.494Z,5.55
2022-07-29T07:29:42.509Z,5.88
2022-07-29T07:32:11.101Z,5.18
2022-07-29T07:34:38.984Z,5.97
2022-07-29T07:37:06.387Z,5.88
2022-07-29T07:39:33.125Z,5.57
2022-07-29T07:42:00.135Z,6.95
2022-07-29T07:44:27.423Z,6.18
2022-07-29T07:46:54.554Z,5.93
2022-07-29T07:49:21.768Z,7.22
2022-07-29T07:51:50.956Z,7.60
2022-07-29T07:54:20.801Z,6.15
2022-07-29T07:56:53.034Z,5.38
2022-07-29T07:59:20.168Z,5.15
2022-07-29T08:01:48.409Z,5.80
2022-07-29T08:04:27.361Z,6.20
2022-07-29T08:06:56.720Z,5.78
2022-07-29T08:09:31.187Z,5.80
2022-07-29T08:12:00.347Z,5.28
2022-07-29T08:14:27.326Z,6.60
2022-07-29T08:16:54.758Z,5.53
2022-07-29T08:19:21.473Z,5.80
2022-07-29T08:21:48.782Z,4.95
2022-07-29T08:24:30.901Z,5.32
2022-07-29T08:27:00.838Z,5.57
2022-07-29T08:29:27.449Z,5.40
2022-07-29T08:31:54.433Z,5.88
2022-07-29T08:34:28.098Z,5.60
2022-07-29T08:36:55.715Z,6.35
2022-07-29T08:39:23.327Z,5.90
2022-07-29T08:41:57.434Z,5.93
2022-07-29T08:44:30.857Z,4.95
2022-07-29T08:46:58.364Z,6.00
2022-07-29T08:49:25.319Z,6.15
2022-07-29T08:51:54.897Z,5.85
2022-07-29T08:54:24.432Z,5.50
2022-07-29T08:56:52.166Z,5.57
2022-07-29T08:59:23.872Z,5.45
2022-07-29T09:01:55.187Z,5.75
2022-07-29T09:04:25.872Z,5.88
2022-07-29T09:06:55.323Z,6.15
2022-07-29T09:09:22.532Z,6.13
2022-07-29T09:11:49.439Z,5.13
2022-07-29T09:14:16.377Z,6.30
2022-07-29T09:17:01.068Z,5.20
2022-07-29T09:19:31.493Z,5.40
2022-07-29T09:22:03.103Z,5.50
2022-07-29T09:24:40.654Z,6.32
2022-07-29T09:27:10.745Z,6.28
2022-07-29T09:29:38.565Z,5.78
2022-07-29T09:32:09.496Z,5.95
2022-07-29T09:34:36.181Z,6.10
2022-07-29T09:37:03.883Z,6.65
2022-07-29T09:39:33.064Z,6.25
2022-07-29T09:42:02.614Z,7.88
2022-07-29T09:44:43.502Z,7.43
2022-07-29T09:47:10.346Z,7.32
2022-07-29T09:49:53.423Z,7.50
2022-07-29T09:52:21.323Z,7.40
2022-07-29T09:54:48.133Z,8.15
2022-07-29T09:57:31.251Z,8.30
2022-07-29T10:00:02.912Z,9.23
2022-07-29T10:02:31.967Z,10.48
2022-07-29T10:05:00.497Z,9.55
2022-07-29T10:07:43.518Z,8.43
2022-07-29T10:10:10.937Z,9.90
2022-07-29T10:12:51.824Z,9.80
2022-07-29T10:15:19.055Z,10.60
2022-07-29T10:17:46.557Z,10.15
2022-07-29T10:20:16.374Z,10.90
2022-07-29T10:22:52.900Z,10.13
2022-07-29T10:25:21.599Z,10.45
2022-07-29T10:27:49.822Z,10.23
2022-07-29T10:30:17.850Z,9.15
2022-07-29T10:33:15.795Z,9.40
2022-07-29T10:35:54.834Z,9.35
2022-07-29T10:38:48.015Z,10.82
2022-07-29T10:41:47.623Z,9.50
2022-07-29T10:44:22.918Z,9.30
2022-07-29T10:46:52.525Z,9.48
2022-07-29T10:49:24.761Z,9.52
2022-07-29T10:52:08.229Z,9.13
2022-07-29T10:54:35.898Z,8.63
2022-07-29T10:57:17.843Z,7.93
2022-07-29T10:59:46.547Z,7.45
2022-07-29T11:02:43.947Z,8.48
2022-07-29T11:05:18.791Z,7.63
2022-07-29T11:08:20.418Z,7.03
2022-07-29T11:10:49.700Z,6.57
2022-07-29T11:13:47.358Z,6.90
2022-07-29T11:16:16.442Z,5.80
2022-07-29T11:19:14.341Z,5.85
2022-07-29T11:21:54.124Z,4.72
2022-07-29T11:27:20.033Z,3.83
2022-07-29T11:29:58.667Z,3.95
2022-07-29T11:32:37.660Z,4.28
2022-07-29T11:35:38.441Z,4.80
2022-07-29T11:38:31.942Z,4.40
2022-07-29T11:41:14.520Z,4.63
2022-07-29T11:43:50.639Z,4.45
2022-07-29T11:46:39.567Z,4.80
2022-07-29T11:49:09.829Z,4.82
2022-07-29T11:51:48.295Z,5.35
2022-07-29T11:54:18.805Z,4.90
2022-07-29T11:56:55.011Z,4.60
2022-07-29T11:59:22.469Z,5.18
2022-07-29T12:02:18.541Z,5.03
2022-07-29T12:04:57.855Z,4.78
2022-07-29T12:07:01.248Z,4.18
2022-07-29T12:07:35.767Z,4.38
2022-07-29T12:10:04.541Z,4.80
2022-07-29T12:12:33.555Z,4.05
2022-07-29T12:15:12.272Z,4.28
2022-07-29T12:17:40.339Z,4.10
2022-07-29T12:20:07.303Z,3.78
2022-07-29T12:22:40.288Z,3.80
2022-07-29T12:25:32.410Z,4.40
2022-07-29T12:28:03.437Z,3.80
2022-07-29T12:30:47.144Z,3.63
2022-07-29T12:33:16.396Z,4.10
2022-07-29T12:35:47.814Z,3.63
2022-07-29T12:38:21.571Z,3.92
2022-07-29T12:40:49.969Z,4.03
2022-07-29T12:43:19.445Z,3.42
2022-07-29T12:45:49.453Z,3.30
2022-07-29T12:48:18.040Z,2.88
2022-07-29T12:50:54.897Z,3.40
2022-07-29T12:53:37.269Z,3.28
2022-07-29T12:56:48.594Z,2.95
2022-07-29T12:59:46.586Z,3.13
2022-07-29T13:02:58.327Z,2.97
2022-07-29T13:06:08.266Z,2.75
2022-07-29T13:09:27.281Z,2.72
2022-07-29T13:12:52.232Z,2.75
2022-07-29T13:16:18.283Z,2.83
2022-07-29T13:19:29.313Z,2.75
2022-07-29T13:22:30.260Z,2.97
2022-07-29T13:25:51.263Z,3.05
2022-07-29T13:28:51.598Z,2.70
2022-07-29T13:32:01.586Z,2.70
2022-07-29T13:35:15.298Z,2.00
2022-07-29T13:38:31.095Z,2.50
2022-07-29T13:41:31.597Z,2.20
2022-07-29T13:44:42.282Z,2.35
2022-07-29T13:47:52.275Z,2.45
2022-07-29T13:50:52.352Z,2.28
2022-07-29T13:54:02.268Z,2.20
2022-07-29T13:57:02.342Z,2.58
2022-07-29T14:00:12.288Z,2.17
2022-07-29T14:03:22.292Z,2.10
2022-07-29T14:06:32.263Z,2.80
2022-07-29T14:09:42.303Z,2.95
2022-07-29T14:12:52.292Z,2.80
2022-07-29T14:15:52.396Z,2.75
2022-07-29T14:19:05.287Z,3.45
2022-07-29T14:22:05.391Z,3.90
2022-07-29T14:25:15.770Z,4.00
2022-07-29T14:28:15.383Z,3.92
2022-07-29T14:31:26.355Z,4.00
2022-07-29T14:34:39.345Z,3.90
2022-07-29T14:37:49.307Z,3.95
2022-07-29T14:40:59.321Z,3.33
2022-07-29T14:44:11.338Z,3.75
2022-07-29T14:47:21.313Z,4.05
2022-07-29T14:50:32.292Z,3.97
2022-07-29T14:53:33.761Z,3.10
2022-07-29T14:56:47.036Z,2.92
2022-07-29T14:59:47.399Z,3.00
2022-07-29T15:03:02.398Z,3.70
2022-07-29T15:06:12.358Z,3.35
2022-07-29T15:09:22.365Z,2.97
2022-07-29T15:12:22.422Z,3.03
2022-07-29T15:15:32.353Z,3.15
2022-07-29T15:18:42.348Z,2.67
2022-07-29T15:21:53.322Z,3.00
2022-07-29T15:24:53.395Z,3.10
2022-07-29T15:28:03.363Z,3.35
2022-07-29T15:31:03.425Z,3.15
2022-07-29T15:34:13.357Z,3.30
2022-07-29T15:37:23.353Z,2.83
2022-07-29T15:40:23.685Z,3.33
2022-07-29T15:43:33.366Z,2.97
2022-07-29T15:46:58.623Z,2.67
2022-07-29T15:49:58.485Z,2.97
2022-07-29T15:53:08.378Z,2.75
2022-07-29T15:56:18.363Z,2.95
2022-07-29T15:59:28.408Z,2.47
2022-07-29T16:02:38.371Z,2.60
2022-07-29T16:05:52.386Z,2.30
2022-07-29T16:08:52.430Z,2.50
2022-07-29T16:12:03.389Z,2.75
2022-07-29T16:15:24.380Z,2.70
2022-07-29T16:18:30.563Z,3.03
2022-07-29T16:21:41.372Z,2.67
2022-07-29T16:24:41.838Z,2.90
2022-07-29T16:27:51.391Z,2.80
2022-07-29T16:30:57.962Z,2.80
2022-07-29T16:34:08.406Z,2.40
2022-07-29T16:37:08.748Z,2.60
2022-07-29T16:40:20.387Z,2.63
2022-07-29T16:43:30.390Z,2.35
2022-07-29T16:46:30.570Z,3.10
2022-07-29T16:49:40.402Z,2.88
2022-07-29T16:52:50.408Z,2.67
2022-07-29T16:55:50.693Z,2.83
2022-07-29T16:59:01.422Z,3.00
2022-07-29T17:02:12.443Z,2.53
2022-07-29T17:05:24.464Z,2.75
2022-07-29T17:08:34.423Z,3.33
2022-07-29T17:11:53.687Z,3.85
2022-07-29T17:15:04.416Z,3.40
2022-07-29T17:18:14.448Z,3.78
2022-07-29T17:21:25.417Z,3.47
2022-07-29T17:24:35.441Z,3.88
2022-07-29T17:27:35.915Z,3.60
2022-07-29T17:30:46.428Z,4.00
2022-07-29T17:33:59.911Z,4.05
2022-07-29T17:37:09.504Z,4.15
2022-07-29T17:40:22.445Z,3.72
2022-07-29T17:43:35.458Z,3.92
2022-07-29T17:46:40.664Z,3.95
2022-07-29T17:49:51.417Z,3.95
2022-07-29T17:53:05.401Z,3.80
2022-07-29T17:56:25.449Z,3.88
2022-07-29T17:59:35.447Z,3.63
2022-07-29T18:02:46.503Z,3.72
2022-07-29T18:05:46.519Z,3.25
2022-07-29T18:08:57.461Z,3.88
2022-07-29T18:12:07.446Z,3.65
2022-07-29T18:15:08.185Z,3.20
2022-07-29T18:18:17.453Z,3.85
2022-07-29T18:21:38.126Z,3.83
2022-07-29T18:24:48.504Z,3.78
2022-07-29T18:28:00.460Z,3.75
2022-07-29T18:31:10.563Z,3.88
2022-07-29T18:34:21.470Z,4.30
2022-07-29T18:38:01.820Z,4.63
2022-07-29T18:41:01.474Z,4.03
2022-07-29T18:44:01.640Z,4.22
2022-07-29T18:47:14.468Z,4.40
2022-07-29T18:50:15.519Z,4.22
2022-07-29T18:53:28.473Z,3.90
2022-07-29T18:56:29.661Z,4.38
2022-07-29T18:59:40.481Z,4.22
2022-07-29T19:02:53.731Z,4.10
2022-07-29T19:05:53.828Z,4.40
2022-07-29T19:09:03.488Z,4.55
2022-07-29T19:12:13.514Z,4.25
2022-07-29T19:15:24.517Z,4.10
2022-07-29T19:18:34.509Z,3.92
2022-07-29T19:21:35.937Z,3.95
2022-07-29T19:24:45.489Z,4.38
2022-07-29T19:27:55.516Z,4.47
2022-07-29T19:31:05.589Z,3.80
2022-07-29T19:34:17.501Z,4.28
2022-07-29T19:37:17.792Z,4.28
2022-07-29T19:40:27.501Z,4.22
2022-07-29T19:43:51.085Z,4.30
2022-07-29T19:47:03.528Z,4.43
2022-07-29T19:50:04.307Z,4.75
2022-07-29T19:53:15.521Z,4.80
2022-07-29T19:56:34.533Z,4.30
2022-07-29T19:59:38.939Z,3.50
2022-07-29T20:02:49.611Z,3.20
2022-07-29T20:05:52.462Z,2.97
2022-07-29T20:09:02.524Z,2.47
2022-07-29T20:12:14.540Z,2.80
2022-07-29T20:15:26.544Z,2.55
2022-07-29T20:18:39.558Z,2.20
2022-07-29T20:21:49.548Z,2.28
2022-07-29T20:24:59.543Z,2.40
2022-07-29T20:28:02.624Z,1.70
2022-07-29T20:31:18.571Z,1.67
2022-07-29T20:34:28.544Z,2.08
2022-07-29T20:37:28.929Z,2.17
2022-07-29T20:40:38.650Z,2.70
2022-07-29T20:43:39.323Z,3.40
2022-07-29T20:46:49.563Z,3.22
2022-07-29T20:50:00.547Z,4.50
2022-07-29T20:53:00.660Z,5.07
2022-07-29T20:56:10.561Z,5.13
2022-07-29T20:59:00.561Z,6.35
2022-07-29T21:01:41.427Z,6.75
2022-07-29T21:04:32.650Z,6.10
2022-07-29T21:07:22.558Z,6.30
2022-07-29T21:10:02.613Z,6.07
2022-07-29T21:12:52.576Z,6.07
2022-07-29T21:15:42.591Z,5.97
2022-07-29T21:18:32.411Z,6.10
2022-07-29T21:21:23.936Z,5.65
2022-07-29T21:24:04.489Z,5.93
2022-07-29T21:30:00.228Z,5.90
2022-07-29T21:32:40.717Z,5.25
2022-07-29T21:38:38.718Z,5.78
2022-07-29T21:41:28.603Z,5.18
2022-07-29T21:44:09.682Z,5.30
2022-07-29T21:46:59.665Z,5.30
2022-07-29T21:49:49.810Z,5.22
2022-07-29T21:52:40.575Z,5.35
2022-07-29T21:55:37.644Z,4.80
2022-07-29T22:01:39.078Z,4.30
2022-07-29T22:04:22.110Z,4.75
2022-07-29T22:07:11.582Z,5.22
2022-07-29T22:09:51.886Z,5.65
2022-07-29T22:12:41.587Z,4.75
2022-07-29T22:15:32.586Z,4.78
2022-07-29T22:18:22.581Z,4.80
2022-07-29T22:21:12.572Z,5.10
2022-07-29T22:23:52.672Z,5.40
2022-07-29T22:26:42.570Z,5.28
2022-07-29T22:29:22.646Z,5.65
2022-07-29T22:32:12.587Z,5.40
2022-07-29T22:35:02.568Z,5.35
2022-07-29T22:37:52.630Z,5.60
2022-07-29T22:40:42.581Z,5.93
2022-07-29T22:43:36.564Z,5.90
2022-07-29T22:46:30.642Z,4.82
2022-07-29T22:49:10.991Z,5.28
2022-07-29T22:52:00.598Z,5.80
2022-07-29T22:54:57.618Z,5.38
2022-07-29T22:57:47.602Z,5.22
2022-07-29T23:00:27.680Z,5.38
2022-07-29T23:03:17.631Z,5.20
2022-07-29T23:05:57.645Z,4.20
2022-07-29T23:08:47.630Z,4.40
2022-07-29T23:11:27.686Z,4.20
2022-07-29T23:14:17.594Z,4.32
2022-07-29T23:16:57.922Z,3.50
2022-07-29T23:19:47.596Z,4.28
2022-07-29T23:22:37.606Z,3.45
2022-07-29T23:25:27.621Z,3.30
2022-07-29T23:28:11.658Z,3.53
2022-07-29T23:31:02.637Z,2.97
2022-07-29T23:33:52.611Z,3.20
2022-07-29T23:36:42.622Z,2.55
2022-07-29T23:39:22.707Z,2.65
2022-07-29T23:42:13.660Z,2.70
2022-07-29T23:44:53.686Z,3.30
2022-07-29T23:47:43.639Z,2.58
2022-07-29T23:50:23.674Z,2.78
2022-07-29T23:53:13.601Z,3.13
2022-07-29T23:56:07.595Z,2.70
2022-07-29T23:58:57.673Z,2.42
